X  CloseMetar Aviation Weather Data     YMAV Avalon Airport

Temperature

17°C Temperature

11°C Dewpoint

68% Humidity



Wind

13 KM/H

 8 MPH

 4 M/S

 7 KTS



230°
South West
Current Conditions

Overcast Overcast
Pressure 1015.92 (hPa) - 30 (in)
Visibility 6.2 (mi) - 10 (km)
Airport
Airport-code YMAV

Location Avalon Airport 14 (km)

Metar:
YMAV 172100Z AUTO 23007KT 9999 // OVC045 17/11 Q1016 RF00.0/000.0

Time: 18-01-2022 08:00